Time;durP1;ratioP1;P1;durP2;ratioP2;P2;SDS_P1;SDS_P2;PMS_P1;PMS_P2;Temp;Humidity;BMP_temperature;BMP_pressure;BME280_temperature;BME280_humidity;BME280_pressure;Samples;Min_cycle;Max_cycle;Signal;HPM_P1;HPM_P2
2022/05/12 00:01:13;;;;;;;3.80;2.42;;;;;;;21.28;44.41;99812.91;5006263;28;20110;-79
2022/05/12 00:03:38;;;;;;;5.80;2.67;;;;;;;21.30;44.19;99811.00;4989858;28;20102;-79
2022/05/12 00:06:04;;;;;;;6.13;2.50;;;;;;;21.30;44.24;99816.38;4989708;28;20130;-79
2022/05/12 00:08:29;;;;;;;9.10;2.60;;;;;;;21.29;44.68;99808.41;5005442;28;20045;-79
2022/05/12 00:10:55;;;;;;;6.72;2.45;;;;;;;21.26;44.21;99814.81;4992990;28;20050;-79
2022/05/12 00:13:20;;;;;;;5.70;2.85;;;;;;;21.27;44.76;99810.31;4986037;28;20038;-79
2022/05/12 00:15:48;;;;;;;7.70;2.75;;;;;;;21.26;44.42;99809.44;5005693;28;20098;-79
2022/05/12 00:18:14;;;;;;;6.47;3.00;;;;;;;21.18;44.89;99812.59;5005169;28;20034;-79
2022/05/12 00:20:41;;;;;;;5.78;2.80;;;;;;;21.21;44.90;99807.03;5004865;28;20042;-78
2022/05/12 00:23:22;;;;;;;4.50;3.05;;;;;;;21.17;45.21;99807.34;4972510;28;20038;-79
2022/05/12 00:25:48;;;;;;;6.40;3.08;;;;;;;21.17;44.97;99810.03;5005363;28;20038;-78
2022/05/12 00:28:16;;;;;;;4.50;2.60;;;;;;;21.14;44.90;99812.88;4988101;28;20102;-79
2022/05/12 00:30:43;;;;;;;11.25;3.10;;;;;;;21.07;44.81;99808.88;4983028;28;20062;-78
2022/05/12 00:33:08;;;;;;;4.85;2.72;;;;;;;21.00;45.24;99816.41;4987911;28;20049;-79
2022/05/12 00:35:35;;;;;;;4.38;2.70;;;;;;;20.96;45.51;99805.00;4987286;28;20042;-79
2022/05/12 00:38:01;;;;;;;5.93;2.45;;;;;;;21.02;45.24;99806.47;4987595;28;20049;-79
2022/05/12 00:40:26;;;;;;;6.32;3.17;;;;;;;20.97;45.45;99814.78;4988922;28;20030;-78
2022/05/12 00:43:07;;;;;;;5.20;3.17;;;;;;;20.92;45.49;99806.16;4988350;28;20398;-79
2022/05/12 00:45:38;;;;;;;4.60;2.80;;;;;;;20.88;45.38;99806.41;4987814;28;20038;-79
2022/05/12 00:48:04;;;;;;;5.13;2.90;;;;;;;20.77;45.97;99799.03;4987409;28;20066;-78
2022/05/12 00:50:34;;;;;;;4.60;2.88;;;;;;;20.70;45.61;99803.03;4988925;28;20308;-79
2022/05/12 00:53:01;;;;;;;6.82;2.78;;;;;;;20.62;46.14;99797.25;5005813;28;20129;-78
2022/05/12 00:55:31;;;;;;;6.22;2.45;;;;;;;20.63;45.90;99794.50;4988632;28;20038;-79
2022/05/12 00:58:00;;;;;;;9.60;2.70;;;;;;;20.63;46.07;99799.84;4987498;28;20049;-79
2022/05/12 01:00:26;;;;;;;5.28;2.58;;;;;;;20.61;45.96;99800.91;5005429;28;20108;-79
2022/05/12 01:02:56;;;;;;;5.03;2.67;;;;;;;20.63;45.62;99797.16;5002153;28;20038;-79
2022/05/12 01:05:24;;;;;;;4.88;2.40;;;;;;;20.65;45.81;99792.59;4971742;28;20050;-79
2022/05/12 01:07:51;;;;;;;5.13;2.45;;;;;;;20.69;45.23;99787.91;4984412;28;20046;-79
2022/05/12 01:10:17;;;;;;;4.55;2.58;;;;;;;20.73;44.90;99795.66;4988650;28;20049;-78
2022/05/12 01:12:46;;;;;;;4.20;2.47;;;;;;;20.75;44.66;99796.44;5000678;28;20421;-79
2022/05/12 01:15:12;;;;;;;4.60;2.40;;;;;;;20.80;44.63;99796.16;5005102;28;20042;-79
2022/05/12 01:17:37;;;;;;;7.32;3.10;;;;;;;20.86;43.86;99774.34;4969920;28;20031;-79
2022/05/12 01:20:04;;;;;;;4.68;2.10;;;;;;;20.91;43.90;99791.03;4986009;28;20092;-79
2022/05/12 01:22:53;;;;;;;6.20;2.70;;;;;;;20.93;43.97;99794.47;5001669;28;20053;-79
2022/05/12 01:25:22;;;;;;;5.22;2.30;;;;;;;20.89;43.52;99790.25;4981372;28;20086;-79
2022/05/12 01:27:48;;;;;;;12.10;2.50;;;;;;;20.82;43.82;99796.06;4971782;28;20041;-79
2022/05/12 01:30:15;;;;;;;6.05;2.38;;;;;;;20.85;44.11;99785.16;4971124;28;20062;-78
2022/05/12 01:32:44;;;;;;;5.07;2.45;;;;;;;20.86;43.71;99800.31;5003428;28;20030;-79
2022/05/12 01:35:10;;;;;;;5.30;2.78;;;;;;;20.85;43.75;99794.06;4987667;28;20037;-79
2022/05/12 01:37:44;;;;;;;8.20;2.80;;;;;;;20.80;43.71;99793.47;5004748;28;20084;-79
2022/05/12 01:40:12;;;;;;;5.65;2.88;;;;;;;20.81;43.84;99797.91;5004673;28;20045;-79
2022/05/12 01:42:38;;;;;;;5.22;2.63;;;;;;;20.78;43.82;99803.44;5003651;28;20034;-79
2022/05/12 01:45:06;;;;;;;6.13;3.30;;;;;;;20.78;43.98;99795.41;5005085;28;20044;-79
2022/05/12 01:47:31;;;;;;;6.30;2.63;;;;;;;20.77;43.54;99799.03;5008985;28;20045;-79
2022/05/12 01:49:57;;;;;;;5.53;2.20;;;;;;;20.83;43.39;99798.66;4999201;28;20038;-79
2022/05/12 01:52:22;;;;;;;5.60;2.70;;;;;;;20.81;43.44;99797.91;5007353;28;20097;-79
2022/05/12 01:54:48;;;;;;;4.07;2.13;;;;;;;20.78;43.78;99798.09;5007419;28;20065;-79
2022/05/12 01:57:13;;;;;;;5.57;2.50;;;;;;;20.80;43.69;99809.56;4989493;28;20038;-79
2022/05/12 01:59:38;;;;;;;4.72;2.38;;;;;;;20.75;43.52;99808.97;4988315;28;20049;-79
2022/05/12 02:02:04;;;;;;;7.75;2.47;;;;;;;20.69;44.06;99810.19;4990072;28;20104;-79
2022/05/12 02:04:29;;;;;;;4.60;2.92;;;;;;;20.67;43.88;99821.97;4973175;28;20034;-79
2022/05/12 02:06:55;;;;;;;5.47;2.33;;;;;;;20.62;44.39;99818.69;5007448;28;20042;-79
2022/05/12 02:09:20;;;;;;;5.78;2.22;;;;;;;20.52;44.53;99819.22;5008382;28;20030;-79
2022/05/12 02:11:45;;;;;;;6.50;2.35;;;;;;;20.53;44.10;99820.94;4990783;28;20042;-79
2022/05/12 02:14:11;;;;;;;4.35;2.20;;;;;;;20.45;44.53;99817.00;4992856;28;20038;-79
2022/05/12 02:16:37;;;;;;;6.38;2.70;;;;;;;20.39;44.74;99820.91;5009525;28;20033;-80
2022/05/12 02:19:05;;;;;;;5.00;3.28;;;;;;;20.36;44.92;99827.28;4991122;28;20046;-80
2022/05/12 02:21:31;;;;;;;6.63;2.30;;;;;;;20.33;44.82;99824.78;5007686;28;20097;-79
2022/05/12 02:23:56;;;;;;;5.35;2.13;;;;;;;20.31;44.97;99818.66;4990781;28;20077;-80
2022/05/12 02:26:22;;;;;;;7.10;2.47;;;;;;;20.28;44.73;99832.22;5007711;28;20042;-80
2022/05/12 02:28:48;;;;;;;5.35;2.45;;;;;;;20.25;44.78;99835.09;4988265;28;20542;-80
2022/05/12 02:31:13;;;;;;;3.47;2.30;;;;;;;20.21;44.60;99841.56;4989886;28;20615;-80
2022/05/12 02:33:39;;;;;;;6.72;2.15;;;;;;;20.18;44.90;99846.25;5003211;28;20143;-79
2022/05/12 02:36:04;;;;;;;4.43;2.22;;;;;;;20.17;45.00;99844.50;4991450;28;20041;-79
2022/05/12 02:38:30;;;;;;;4.97;2.63;;;;;;;20.13;44.37;99852.72;5009933;28;20045;-79
2022/05/12 02:40:55;;;;;;;4.28;2.20;;;;;;;20.12;44.76;99842.97;4975430;28;20481;-79
2022/05/12 02:43:24;;;;;;;7.82;3.13;;;;;;;20.10;44.69;99850.22;4991029;28;20038;-79
2022/05/12 02:45:59;;;;;;;4.22;2.00;;;;;;;20.08;44.42;99852.09;5006995;28;20042;-79
2022/05/12 02:48:27;;;;;;;5.82;2.60;;;;;;;20.10;44.16;99855.56;4997274;28;20038;-80
2022/05/12 02:50:53;;;;;;;4.78;2.60;;;;;;;20.17;43.70;99868.59;5000876;28;20079;-79
2022/05/12 02:53:19;;;;;;;4.60;2.20;;;;;;;20.20;43.45;99873.78;5004804;28;20066;-80
2022/05/12 02:55:44;;;;;;;4.63;2.20;;;;;;;20.20;43.74;99882.72;5002882;28;20045;-79
2022/05/12 02:58:11;;;;;;;7.57;2.58;;;;;;;20.22;43.82;99885.28;5004786;28;20042;-79
2022/05/12 03:00:37;;;;;;;6.43;2.10;;;;;;;20.13;43.62;99884.00;4973683;28;20046;-80
2022/05/12 03:03:03;;;;;;;8.27;2.50;;;;;;;20.14;43.53;99883.91;4989176;28;20049;-80
2022/05/12 03:05:28;;;;;;;6.20;2.17;;;;;;;20.11;43.87;99896.59;4972143;28;20117;-80
2022/05/12 03:07:54;;;;;;;4.80;2.40;;;;;;;20.10;43.56;99901.09;5006047;28;20041;-80
2022/05/12 03:10:20;;;;;;;7.88;1.90;;;;;;;20.12;43.47;99896.53;4988078;28;20030;-79
2022/05/12 03:12:45;;;;;;;5.53;2.20;;;;;;;20.07;43.76;99905.78;5005311;28;20085;-79
2022/05/12 03:15:12;;;;;;;8.35;2.15;;;;;;;20.12;43.42;99909.94;5006383;28;20030;-79
2022/05/12 03:17:39;;;;;;;5.32;2.25;;;;;;;20.12;43.80;99909.03;4989181;28;20057;-79
2022/05/12 03:20:09;;;;;;;5.57;1.75;;;;;;;20.14;43.29;99932.13;5005644;28;20018;-79
2022/05/12 03:22:35;;;;;;;3.47;2.03;;;;;;;20.22;43.33;99928.16;5006196;28;20128;-78
2022/05/12 03:25:00;;;;;;;5.43;1.80;;;;;;;20.20;43.46;99928.25;5005789;28;20097;-79
2022/05/12 03:27:26;;;;;;;4.88;1.80;;;;;;;20.20;43.32;99936.31;4988601;28;20035;-78
2022/05/12 03:29:52;;;;;;;3.75;2.00;;;;;;;20.26;43.08;99961.88;4989301;28;20049;-78
2022/05/12 03:32:17;;;;;;;4.47;1.70;;;;;;;20.19;42.82;99961.34;5005954;28;20066;-78
2022/05/12 03:34:43;;;;;;;8.07;2.00;;;;;;;20.26;43.18;99983.31;5000739;28;20042;-78
2022/05/12 03:37:09;;;;;;;4.88;1.95;;;;;;;20.34;42.22;99986.44;4988860;28;20065;-79
2022/05/12 03:39:36;;;;;;;10.55;2.08;;;;;;;20.44;42.24;100009.09;5003069;28;20073;-78
2022/05/12 03:42:02;;;;;;;9.68;2.13;;;;;;;20.44;42.40;100003.75;4987972;28;20454;-79
2022/05/12 03:47:14;;;;;;;7.18;2.75;;;;;;;19.97;47.31;100039.34;4988523;28;20409;-79
2022/05/12 03:49:41;;;;;;;8.43;2.97;;;;;;;19.67;48.83;100039.09;5003062;28;20034;-79
2022/05/12 03:52:08;;;;;;;12.23;3.13;;;;;;;19.36;50.30;100056.72;4988256;28;20034;-79
2022/05/12 03:54:34;;;;;;;6.57;3.60;;;;;;;19.15;51.77;100058.66;5006421;28;20034;-78
2022/05/12 03:57:00;;;;;;;12.70;3.70;;;;;;;18.95;52.35;100077.47;4987661;28;20034;-79
2022/05/12 03:59:26;;;;;;;6.93;2.90;;;;;;;18.91;52.67;100083.88;4987089;28;20056;-79
2022/05/12 04:01:51;;;;;;;7.38;3.40;;;;;;;18.80;53.58;100087.94;5004926;28;20093;-79
2022/05/12 04:04:17;;;;;;;9.02;2.97;;;;;;;18.73;54.20;100099.84;5000965;28;20034;-79
2022/05/12 04:06:42;;;;;;;6.70;2.70;;;;;;;18.67;54.32;100099.25;5005632;28;20098;-79
2022/05/12 04:09:08;;;;;;;8.75;3.17;;;;;;;18.56;55.04;100103.28;5005789;28;20062;-79
2022/05/12 04:11:33;;;;;;;8.77;3.08;;;;;;;18.51;55.15;100105.28;5003965;28;20038;-78
2022/05/12 04:13:59;;;;;;;7.97;3.22;;;;;;;18.61;54.62;100127.13;5003185;28;20117;-79
2022/05/12 04:16:24;;;;;;;8.38;3.10;;;;;;;18.61;54.67;100135.16;5002475;28;20256;-79
2022/05/12 04:18:50;;;;;;;10.43;3.10;;;;;;;18.67;54.38;100147.34;5004398;28;20090;-78
2022/05/12 04:21:16;;;;;;;7.38;3.33;;;;;;;18.68;54.55;100151.75;4988979;28;20049;-79
2022/05/12 04:23:43;;;;;;;6.55;2.35;;;;;;;18.58;54.77;100175.38;4996206;28;20038;-78
2022/05/12 04:26:10;;;;;;;6.35;2.35;;;;;;;18.47;55.17;100164.28;4998882;28;20042;-79
2022/05/12 04:28:36;;;;;;;6.55;2.47;;;;;;;18.45;55.17;100166.19;4999696;28;20108;-79
2022/05/12 04:31:03;;;;;;;6.53;2.92;;;;;;;18.40;55.41;100161.88;4999914;28;20041;-79
2022/05/12 04:36:13;;;;;;;8.05;2.28;;;;;;;18.16;56.18;100173.66;4998529;28;20057;-79
2022/05/12 04:38:39;;;;;;;11.35;2.22;;;;;;;18.10;56.63;100184.59;4987437;28;20038;-78
2022/05/12 04:41:04;;;;;;;8.73;2.70;;;;;;;18.05;57.01;100189.25;5004112;28;20093;-79
2022/05/12 04:43:29;;;;;;;8.57;2.33;;;;;;;18.09;56.72;100186.41;4998160;28;20057;-79
2022/05/12 04:45:55;;;;;;;6.38;2.10;;;;;;;18.09;57.16;100194.41;4989917;28;20038;-80
2022/05/12 04:48:20;;;;;;;7.20;2.85;;;;;;;18.14;56.60;100197.75;5005513;28;20044;-79
2022/05/12 04:50:46;;;;;;;8.02;2.85;;;;;;;18.25;56.78;100220.47;4969165;28;20094;-78
2022/05/12 04:53:11;;;;;;;4.90;2.10;;;;;;;18.26;56.79;100212.41;5005749;28;20030;-79
2022/05/12 04:55:38;;;;;;;8.23;2.63;;;;;;;18.24;56.52;100213.41;4987325;28;20031;-79
2022/05/12 04:58:03;;;;;;;6.68;2.40;;;;;;;18.32;56.53;100216.59;5007258;28;20041;-79
2022/05/12 05:00:35;;;;;;;8.52;2.35;;;;;;;18.48;56.52;100222.16;4975553;28;20018;-79
2022/05/12 05:03:01;;;;;;;8.18;2.22;;;;;;;18.50;56.46;100217.59;5009187;28;20102;-79
2022/05/12 05:05:27;;;;;;;6.00;1.80;;;;;;;18.57;56.02;100224.41;4990413;28;20042;-78
2022/05/12 05:07:53;;;;;;;7.00;2.13;;;;;;;18.62;56.41;100228.59;4989656;28;20062;-79
2022/05/12 05:10:19;;;;;;;7.93;2.00;;;;;;;18.59;56.31;100233.22;4990460;28;20038;-79
2022/05/12 05:12:45;;;;;;;3.78;1.70;;;;;;;18.56;56.27;100254.75;4990764;28;20130;-79
2022/05/12 05:15:12;;;;;;;6.28;2.30;;;;;;;18.57;56.34;100248.44;5006840;28;20042;-79
2022/05/12 05:17:38;;;;;;;5.95;2.10;;;;;;;18.65;56.36;100250.78;5003464;28;20041;-79
2022/05/12 05:20:06;;;;;;;5.85;1.88;;;;;;;18.74;56.11;100255.75;4992012;28;20036;-79
2022/05/12 05:22:33;;;;;;;5.70;2.08;;;;;;;18.83;55.90;100255.34;5010084;28;20035;-79
2022/05/12 05:24:59;;;;;;;7.75;2.33;;;;;;;18.75;55.79;100274.41;5012276;28;20038;-79
2022/05/12 05:27:24;;;;;;;6.93;1.85;;;;;;;18.62;55.80;100283.88;4993245;28;20042;-79
2022/05/12 05:29:51;;;;;;;7.75;1.80;;;;;;;18.57;55.92;100277.84;5011895;28;20045;-79
2022/05/12 05:32:16;;;;;;;5.43;1.80;;;;;;;18.62;55.83;100290.06;4994509;28;20069;-79
2022/05/12 05:34:42;;;;;;;4.80;1.65;;;;;;;18.69;55.65;100306.72;4971659;28;20034;-79
2022/05/12 05:37:07;;;;;;;7.18;1.80;;;;;;;18.66;55.61;100296.19;5011181;28;20053;-79
2022/05/12 05:39:33;;;;;;;8.88;2.03;;;;;;;18.84;54.93;100299.88;4991662;28;20045;-79
2022/05/12 05:42:02;;;;;;;5.53;1.92;;;;;;;18.95;54.58;100327.03;4993409;28;20026;-79
2022/05/12 05:44:32;;;;;;;4.85;1.70;;;;;;;18.93;55.24;100304.81;4989425;28;20077;-79
2022/05/12 05:46:58;;;;;;;7.25;1.60;;;;;;;18.99;54.42;100309.03;5011938;28;20038;-78
2022/05/12 05:49:23;;;;;;;7.82;1.58;;;;;;;18.95;54.67;100327.03;4976455;28;20034;-79
2022/05/12 05:54:34;;;;;;;5.60;1.63;;;;;;;18.69;54.26;100330.78;5010906;28;20080;-79
2022/05/12 05:57:00;;;;;;;6.32;1.40;;;;;;;18.70;54.50;100335.19;5008709;28;20026;-78
2022/05/12 05:59:26;;;;;;;7.68;1.50;;;;;;;18.59;54.56;100362.38;5008697;28;20493;-79
2022/05/12 06:01:51;;;;;;;5.78;1.60;;;;;;;18.59;53.79;100356.16;5010005;28;20069;-78
2022/05/12 06:04:17;;;;;;;6.32;1.58;;;;;;;18.54;54.89;100361.69;5009535;28;20034;-79
2022/05/12 06:06:44;;;;;;;6.55;1.50;;;;;;;18.40;54.22;100362.28;4992452;28;20039;-79
2022/05/12 06:09:12;;;;;;;6.00;1.60;;;;;;;18.29;53.86;100361.84;5009815;28;20038;-79
2022/05/12 06:11:38;;;;;;;9.63;1.95;;;;;;;18.40;53.75;100375.63;4987983;28;20064;-79
2022/05/12 06:14:03;;;;;;;3.75;1.20;;;;;;;18.51;53.34;100390.38;4988714;28;20070;-79
2022/05/12 06:16:28;;;;;;;4.47;1.60;;;;;;;18.50;54.04;100402.00;5008544;28;20394;-79
2022/05/12 06:18:54;;;;;;;5.75;1.73;;;;;;;18.42;53.88;100380.03;4991094;28;20066;-79
2022/05/12 06:21:19;;;;;;;11.85;1.70;;;;;;;18.43;52.45;100421.88;4989964;28;20069;-79
2022/05/12 06:23:46;;;;;;;5.70;1.33;;;;;;;18.61;52.28;100407.75;5008807;28;20057;-79
2022/05/12 06:26:14;;;;;;;6.30;1.90;;;;;;;18.70;52.15;100412.72;5007729;28;20034;-78
2022/05/12 06:28:42;;;;;;;8.52;1.80;;;;;;;18.58;51.32;100402.56;5008325;28;20034;-78
2022/05/12 06:31:08;;;;;;;8.65;2.42;;;;;;;18.67;51.70;100436.03;4981635;28;20031;-78
2022/05/12 06:33:33;;;;;;;8.55;1.30;;;;;;;18.67;50.29;100420.00;5007554;28;20094;-79
2022/05/12 06:36:05;;;;;;;4.82;1.38;;;;;;;18.74;49.76;100443.75;4990284;28;20030;-79
2022/05/12 06:38:31;;;;;;;5.85;1.20;;;;;;;18.57;48.92;100462.25;5007075;28;20521;-78
2022/05/12 06:40:56;;;;;;;6.47;0.90;;;;;;;18.58;49.19;100466.69;5008629;28;20045;-79
2022/05/12 06:43:23;;;;;;;4.78;1.35;;;;;;;18.72;49.03;100475.00;5009074;28;20038;-79
2022/05/12 06:45:49;;;;;;;6.78;1.23;;;;;;;18.70;49.21;100460.81;5008157;28;20060;-77
2022/05/12 06:48:15;;;;;;;13.50;1.83;;;;;;;18.91;49.50;100464.44;4978559;28;20045;-79
2022/05/12 06:50:40;;;;;;;5.57;0.95;;;;;;;18.97;49.30;100471.38;5008207;28;20125;-79
2022/05/12 06:53:06;;;;;;;7.43;1.10;;;;;;;18.94;48.88;100491.09;4969772;28;20045;-79
2022/05/12 06:55:31;;;;;;;3.38;1.15;;;;;;;18.76;48.69;100514.09;5009256;28;20085;-79
2022/05/12 06:57:57;;;;;;;9.55;1.10;;;;;;;18.34;47.70;100498.81;5010242;28;20089;-79
2022/05/12 07:00:23;;;;;;;11.63;1.58;;;;;;;18.36;47.42;100502.25;5008709;28;20034;-79
2022/05/12 07:02:49;;;;;;;8.73;1.45;;;;;;;18.40;45.63;100543.97;4984840;28;20031;-79
2022/05/12 07:05:21;;;;;;;5.18;0.82;;;;;;;18.39;45.12;100546.69;5007429;28;20026;-79
2022/05/12 07:07:46;;;;;;;4.18;0.75;;;;;;;18.42;44.43;100522.56;5009073;28;20038;-79
2022/05/12 07:10:14;;;;;;;4.93;1.55;;;;;;;18.41;41.71;100550.19;5003423;28;20518;-78
2022/05/12 07:12:41;;;;;;;12.15;1.38;;;;;;;18.39;40.58;100517.31;5008679;28;20073;-78
2022/05/12 07:15:08;;;;;;;22.05;2.08;;;;;;;18.29;38.74;100540.84;4991516;28;20089;-79
2022/05/12 07:17:37;;;;;;;17.45;1.50;;;;;;;18.16;39.38;100547.59;5005305;28;20103;-79
2022/05/12 07:28:16;;;;;;;8.45;1.33;;;;;;;18.18;39.55;100557.28;5006119;28;20031;-78
2022/05/12 07:33:32;;;;;;;7.75;0.85;;;;;;;18.23;39.18;100573.13;5006339;28;20505;-79
2022/05/12 07:35:58;;;;;;;7.97;1.20;;;;;;;18.18;39.35;100570.63;5005740;28;20038;-79
2022/05/12 07:38:24;;;;;;;10.90;1.00;;;;;;;18.23;40.07;100581.13;5000659;28;20022;-79
2022/05/12 07:40:50;;;;;;;7.25;0.98;;;;;;;18.32;39.07;100596.84;5006936;28;20038;-77
2022/05/12 07:43:16;;;;;;;2.53;0.70;;;;;;;18.25;39.63;100600.66;5008086;28;20054;-79
2022/05/12 07:45:41;;;;;;;3.60;0.85;;;;;;;18.16;38.83;100617.91;5008344;28;20066;-78
2022/05/12 07:48:07;;;;;;;4.05;0.60;;;;;;;18.07;39.59;100654.75;5005318;28;20054;-79
2022/05/12 07:50:33;;;;;;;4.22;0.50;;;;;;;17.96;40.00;100615.06;5009154;28;20038;-79
2022/05/12 07:52:58;;;;;;;3.92;0.63;;;;;;;17.87;40.80;100640.28;4974572;28;20034;-79
2022/05/12 07:55:23;;;;;;;3.72;0.85;;;;;;;17.89;41.40;100634.88;5007243;28;20104;-78
2022/05/12 07:57:50;;;;;;;3.78;0.70;;;;;;;17.98;42.05;100639.06;5008421;28;20060;-78
2022/05/12 08:00:17;;;;;;;5.47;1.00;;;;;;;18.10;40.63;100652.84;5006169;28;20093;-79
2022/05/12 08:02:42;;;;;;;4.40;0.77;;;;;;;17.92;42.35;100667.72;5004873;28;20034;-78
2022/05/12 08:05:07;;;;;;;1.25;0.40;;;;;;;17.86;42.92;100645.69;5005686;28;20061;-79
2022/05/12 08:07:33;;;;;;;3.03;0.80;;;;;;;17.93;42.94;100658.75;5003606;28;20038;-79
2022/05/12 08:10:00;;;;;;;2.75;0.57;;;;;;;18.04;43.17;100646.84;5002623;28;20034;-78
2022/05/12 08:12:27;;;;;;;4.30;0.60;;;;;;;18.23;43.48;100665.75;4992458;28;20259;-78
2022/05/12 08:14:52;;;;;;;3.22;0.68;;;;;;;18.12;43.39;100663.47;5001717;28;20716;-78
2022/05/12 08:17:18;;;;;;;3.17;0.52;;;;;;;18.05;44.08;100688.63;4968182;28;20078;-79
2022/05/12 08:19:43;;;;;;;8.00;0.60;;;;;;;18.15;44.09;100674.03;5001794;28;20102;-78
2022/05/12 08:22:09;;;;;;;4.72;0.50;;;;;;;18.22;43.52;100678.25;5003152;28;20046;-78
2022/05/12 08:24:35;;;;;;;2.80;0.70;;;;;;;17.94;43.66;100689.00;5004157;28;20049;-79
2022/05/12 08:27:00;;;;;;;3.45;0.60;;;;;;;18.01;43.69;100687.00;5004587;28;20061;-79
2022/05/12 08:29:26;;;;;;;2.67;0.50;;;;;;;18.18;43.42;100682.84;5004115;28;20034;-79
2022/05/12 08:31:51;;;;;;;2.92;0.55;;;;;;;18.10;43.13;100708.03;5004197;28;20042;-79
2022/05/12 08:34:17;;;;;;;3.97;0.70;;;;;;;18.02;42.54;100705.63;5001210;28;20042;-79
2022/05/12 08:36:42;;;;;;;4.78;0.60;;;;;;;17.97;43.61;100702.25;5003429;28;20046;-79
2022/05/12 08:39:08;;;;;;;3.58;0.40;;;;;;;18.26;43.45;100706.59;5005589;28;20392;-80
2022/05/12 08:41:43;;;;;;;1.30;0.40;;;;;;;18.11;42.74;100717.81;5003708;28;20042;-79
2022/05/12 08:44:13;;;;;;;1.70;0.50;;;;;;;18.11;43.05;100715.16;5003843;28;20053;-79
2022/05/12 08:46:49;;;;;;;3.13;0.82;;;;;;;18.12;42.25;100700.84;5021945;22;20053;-77
2022/05/12 08:49:28;;;;;;;2.75;0.60;;;;;;;18.01;42.44;100703.91;5011551;28;20038;-77
2022/05/12 08:52:07;;;;;;;5.10;0.60;;;;;;;18.10;42.84;100713.38;5011829;28;20040;-76
2022/05/12 08:54:36;;;;;;;2.30;0.50;;;;;;;18.35;42.18;100708.94;5011610;28;20025;-77
2022/05/12 08:57:04;;;;;;;4.22;0.75;;;;;;;18.27;42.31;100732.38;4993817;28;20076;-77
2022/05/12 08:59:31;;;;;;;3.97;0.70;;;;;;;18.35;42.12;100721.44;4992223;28;20039;-77
2022/05/12 09:02:16;;;;;;;3.67;0.50;;;;;;;18.36;41.38;100734.72;4992071;28;20030;-77
2022/05/12 09:04:59;;;;;;;6.55;0.60;;;;;;;18.34;41.93;100736.59;4992001;28;20034;-77
2022/05/12 09:07:46;;;;;;;5.15;0.60;;;;;;;18.46;40.95;100726.38;4990238;28;20031;-77
2022/05/12 09:10:33;;;;;;;2.05;0.60;;;;;;;18.40;40.67;100743.53;4990048;28;20481;-77
2022/05/12 09:13:21;;;;;;;3.22;0.70;;;;;;;18.33;41.23;100760.69;4989061;28;20038;-77
2022/05/12 09:15:56;;;;;;;4.75;0.43;;;;;;;18.38;41.38;100756.06;4990576;28;20038;-77
2022/05/12 09:18:29;;;;;;;3.05;0.60;;;;;;;18.64;40.47;100763.16;4992046;28;20045;-77
2022/05/12 09:21:00;;;;;;;4.78;0.73;;;;;;;18.70;41.82;100733.50;4989376;28;20073;-77
2022/05/12 09:23:25;;;;;;;1.98;0.50;;;;;;;18.83;40.72;100752.69;4990026;28;20046;-77
2022/05/12 09:25:52;;;;;;;5.55;0.63;;;;;;;18.89;39.42;100764.94;4991232;28;20034;-77
2022/05/12 09:28:25;;;;;;;5.10;0.73;;;;;;;18.90;38.98;100742.66;4991267;28;20129;-77
2022/05/12 09:30:52;;;;;;;3.60;0.57;;;;;;;18.93;40.58;100759.44;4989019;28;20038;-77
2022/05/12 09:33:34;;;;;;;3.42;0.47;;;;;;;19.26;40.02;100740.38;4991277;28;20041;-77
2022/05/12 09:36:04;;;;;;;2.30;0.70;;;;;;;19.46;40.17;100759.19;4991022;28;20038;-77
2022/05/12 09:38:30;;;;;;;2.30;0.52;;;;;;;19.57;39.73;100744.50;4991824;28;20065;-77
2022/05/12 09:40:57;;;;;;;6.07;0.80;;;;;;;19.76;39.75;100739.34;4991875;28;20038;-77
2022/05/12 09:43:31;;;;;;;1.55;0.40;;;;;;;19.69;38.69;100755.63;4989622;28;20030;-76
2022/05/12 09:46:07;;;;;;;1.58;0.40;;;;;;;19.56;38.93;100740.97;4989799;28;20464;-77
2022/05/12 09:48:36;;;;;;;1.45;0.40;;;;;;;19.44;38.72;100750.38;4987628;28;20046;-77
2022/05/12 09:51:12;;;;;;;0.98;0.40;;;;;;;19.40;39.56;100743.38;4991504;28;20468;-77
2022/05/12 09:53:38;;;;;;;3.67;0.90;;;;;;;19.43;38.52;100747.75;4991913;28;20046;-77
2022/05/12 09:56:25;;;;;;;1.25;0.47;;;;;;;19.72;38.73;100751.09;4987291;28;20389;-77
2022/05/12 09:59:07;;;;;;;3.25;0.45;;;;;;;19.75;37.17;100751.81;4992924;28;20072;-77
2022/05/12 10:01:34;;;;;;;2.58;0.60;;;;;;;19.53;37.96;100741.09;4990286;28;20505;-77
2022/05/12 10:09:57;;;;;;;3.10;0.60;;;;;;;19.80;38.03;100732.91;4994583;28;20042;-77
2022/05/12 10:12:27;;;;;;;2.00;0.52;;;;;;;19.89;37.08;100744.13;4994762;28;20060;-76
2022/05/12 10:14:52;;;;;;;4.70;0.50;;;;;;;19.91;38.74;100736.00;4994891;28;20038;-76
2022/05/12 10:17:37;;;;;;;2.65;0.60;;;;;;;20.09;37.13;100756.66;4994865;28;20378;-75
2022/05/12 10:20:09;;;;;;;2.28;0.60;;;;;;;20.05;36.42;100733.63;4994248;28;20183;-76
2022/05/12 10:22:43;;;;;;;4.43;0.75;;;;;;;20.32;37.44;100744.09;4994115;28;20099;-77
2022/05/12 10:25:20;;;;;;;3.33;0.65;;;;;;;20.68;36.66;100751.50;4994100;28;20421;-76
2022/05/12 10:28:16;;;;;;;2.28;0.60;;;;;;;20.44;36.87;100751.63;5006560;28;20049;-76
2022/05/12 10:30:56;;;;;;;2.55;0.65;;;;;;;20.42;37.28;100745.44;4991318;28;20042;-76
2022/05/12 10:33:37;;;;;;;3.53;0.70;;;;;;;20.28;37.07;100750.53;4991337;28;20042;-76
2022/05/12 10:36:14;;;;;;;2.97;0.55;;;;;;;20.39;36.06;100745.59;4990380;28;20464;-75
2022/05/12 10:39:02;;;;;;;3.28;0.55;;;;;;;20.58;36.51;100751.91;4994444;28;20473;-76
2022/05/12 10:41:36;;;;;;;3.55;0.63;;;;;;;20.80;35.72;100732.16;4991993;28;20532;-76
2022/05/12 10:44:13;;;;;;;3.78;1.00;;;;;;;21.13;34.78;100739.63;5006002;28;20053;-76
2022/05/12 10:46:56;;;;;;;3.88;0.80;;;;;;;20.95;35.29;100744.00;4993963;28;20105;-76
2022/05/12 10:49:44;;;;;;;3.33;0.63;;;;;;;20.75;34.51;100739.53;4991699;28;20497;-77
2022/05/12 10:52:24;;;;;;;1.25;0.43;;;;;;;20.70;34.40;100742.47;4990689;28;20030;-77
2022/05/12 10:55:11;;;;;;;3.83;0.70;;;;;;;20.94;35.34;100753.00;4993725;28;20435;-77
2022/05/12 10:57:57;;;;;;;2.80;0.70;;;;;;;20.90;35.09;100744.22;4992813;28;20034;-76
2022/05/12 11:01:04;;;;;;;4.20;0.50;;;;;;;20.88;35.29;100750.59;4993474;28;20117;-78
2022/05/12 11:03:54;;;;;;;2.53;0.73;;;;;;;21.17;34.77;100739.41;4982595;28;20067;-78
2022/05/12 11:06:27;;;;;;;1.73;0.65;;;;;;;21.34;35.64;100737.72;4993664;28;20027;-77
2022/05/12 11:09:03;;;;;;;5.90;0.50;;;;;;;21.17;33.86;100738.53;4996480;28;20042;-78
2022/05/12 11:11:45;;;;;;;2.30;0.55;;;;;;;21.15;33.23;100735.91;4994299;28;20046;-78
2022/05/12 11:14:30;;;;;;;2.35;0.68;;;;;;;21.20;31.17;100749.13;4993690;28;20038;-78
2022/05/12 11:17:19;;;;;;;1.35;0.47;;;;;;;20.93;30.91;100754.84;4995248;28;20652;-77
2022/05/12 11:19:56;;;;;;;1.25;0.40;;;;;;;21.18;32.02;100751.00;4997154;28;20030;-78
2022/05/12 11:22:46;;;;;;;0.73;0.32;;;;;;;21.26;28.96;100751.50;4996764;28;20035;-77
2022/05/12 11:25:44;;;;;;;2.05;0.55;;;;;;;21.14;30.24;100765.50;4995325;28;20042;-78
2022/05/12 11:31:06;;;;;;;4.63;0.88;;;;;;;21.35;31.13;100736.78;4996862;28;20497;-77
2022/05/12 11:33:35;;;;;;;4.75;1.20;;;;;;;21.70;30.63;100732.44;4996936;28;20084;-77
2022/05/12 11:36:01;;;;;;;1.25;0.50;;;;;;;22.15;30.67;100744.50;4995790;28;20042;-78
2022/05/12 11:38:45;;;;;;;2.55;0.73;;;;;;;21.99;30.13;100746.22;4995029;28;20038;-79
2022/05/12 11:41:19;;;;;;;5.45;1.10;;;;;;;22.14;28.00;100731.13;4996634;28;20035;-77
2022/05/12 11:46:50;;;;;;;3.25;0.82;;;;;;;22.71;29.24;100731.75;4996249;28;20030;-77
2022/05/12 11:49:56;;;;;;;4.82;0.75;;;;;;;23.09;28.83;100729.72;4996155;28;20121;-78
2022/05/12 11:52:25;;;;;;;3.17;0.77;;;;;;;23.10;27.35;100749.44;4993983;28;20038;-77
2022/05/12 11:54:54;;;;;;;2.42;0.55;;;;;;;22.46;28.57;100757.28;4997184;28;20080;-78
2022/05/12 11:57:32;;;;;;;1.63;0.57;;;;;;;22.74;28.09;100736.97;4996554;28;20042;-78
2022/05/12 12:00:00;;;;;;;3.55;0.90;;;;;;;22.56;26.65;100746.91;4990792;28;20058;-77
2022/05/12 12:02:28;;;;;;;4.28;0.88;;;;;;;22.64;27.57;100744.69;4994617;28;20579;-78
2022/05/12 12:04:57;;;;;;;3.70;0.60;;;;;;;22.52;27.73;100766.84;4994986;28;20371;-77
2022/05/12 12:07:31;;;;;;;13.02;1.20;;;;;;;22.83;27.93;100751.78;4994459;28;20444;-78